sensor_id;sensor_type;location;lat;lon;timestamp;pressure;altitude;pressure_sealevel;temperature;humidity
74921;BME280;63483;47.384;8.860;2023-06-14T00:00:10;94024.91;;;14.81;28.73
74921;BME280;63483;47.384;8.860;2023-06-14T00:02:38;94021.03;;;14.84;28.80
74921;BME280;63483;47.384;8.860;2023-06-14T00:05:04;94028.31;;;14.82;29.08
74921;BME280;63483;47.384;8.860;2023-06-14T00:07:37;94024.28;;;14.79;29.40
74921;BME280;63483;47.384;8.860;2023-06-14T00:10:03;94021.53;;;14.74;29.45
74921;BME280;63483;47.384;8.860;2023-06-14T00:12:30;94023.00;;;14.70;29.33
74921;BME280;63483;47.384;8.860;2023-06-14T00:14:56;94022.25;;;14.63;29.42
74921;BME280;63483;47.384;8.860;2023-06-14T00:17:21;94022.13;;;14.57;29.36
74921;BME280;63483;47.384;8.860;2023-06-14T00:19:47;94019.94;;;14.54;29.64
74921;BME280;63483;47.384;8.860;2023-06-14T00:22:13;94020.16;;;14.53;29.76
74921;BME280;63483;47.384;8.860;2023-06-14T00:24:38;94017.09;;;14.49;30.02
74921;BME280;63483;47.384;8.860;2023-06-14T00:27:04;94017.41;;;14.41;30.15
74921;BME280;63483;47.384;8.860;2023-06-14T00:29:29;94009.97;;;14.38;30.23
74921;BME280;63483;47.384;8.860;2023-06-14T00:31:55;94006.94;;;14.34;29.93
74921;BME280;63483;47.384;8.860;2023-06-14T00:34:20;94014.94;;;14.28;30.28
74921;BME280;63483;47.384;8.860;2023-06-14T00:36:45;94007.50;;;14.18;30.34
74921;BME280;63483;47.384;8.860;2023-06-14T00:39:11;94010.22;;;14.11;30.50
74921;BME280;63483;47.384;8.860;2023-06-14T00:41:37;94004.78;;;14.06;30.52
74921;BME280;63483;47.384;8.860;2023-06-14T00:44:02;94007.63;;;14.04;30.47
74921;BME280;63483;47.384;8.860;2023-06-14T00:46:28;93999.97;;;14.03;30.47
74921;BME280;63483;47.384;8.860;2023-06-14T00:48:54;93998.78;;;13.99;30.53
74921;BME280;63483;47.384;8.860;2023-06-14T00:51:21;93997.19;;;13.98;30.32
74921;BME280;63483;47.384;8.860;2023-06-14T00:53:46;94004.91;;;13.93;30.69
74921;BME280;63483;47.384;8.860;2023-06-14T00:56:13;94004.78;;;13.87;30.83
74921;BME280;63483;47.384;8.860;2023-06-14T00:58:40;94004.00;;;13.80;31.34
74921;BME280;63483;47.384;8.860;2023-06-14T01:01:06;93992.13;;;13.71;31.34
74921;BME280;63483;47.384;8.860;2023-06-14T01:03:31;93999.88;;;13.66;31.38
74921;BME280;63483;47.384;8.860;2023-06-14T01:08:49;93998.31;;;13.51;31.49
74921;BME280;63483;47.384;8.860;2023-06-14T01:11:22;94002.25;;;13.42;31.68
74921;BME280;63483;47.384;8.860;2023-06-14T01:13:51;93997.19;;;13.41;31.51
74921;BME280;63483;47.384;8.860;2023-06-14T01:16:17;93988.94;;;13.37;31.73
74921;BME280;63483;47.384;8.860;2023-06-14T01:18:43;93995.22;;;13.36;31.66
74921;BME280;63483;47.384;8.860;2023-06-14T01:21:25;94002.09;;;13.37;31.40
74921;BME280;63483;47.384;8.860;2023-06-14T01:23:53;93998.09;;;13.28;31.61
74921;BME280;63483;47.384;8.860;2023-06-14T01:26:23;93995.88;;;13.25;31.66
74921;BME280;63483;47.384;8.860;2023-06-14T01:28:49;93992.81;;;13.28;31.61
74921;BME280;63483;47.384;8.860;2023-06-14T01:31:18;93992.81;;;13.28;31.57
74921;BME280;63483;47.384;8.860;2023-06-14T01:33:45;93991.44;;;13.25;31.54
74921;BME280;63483;47.384;8.860;2023-06-14T01:36:12;93995.31;;;13.23;31.55
74921;BME280;63483;47.384;8.860;2023-06-14T01:38:38;93990.47;;;13.20;31.36
74921;BME280;63483;47.384;8.860;2023-06-14T01:41:04;93993.31;;;13.18;31.61
74921;BME280;63483;47.384;8.860;2023-06-14T01:43:31;93990.47;;;13.20;31.42
74921;BME280;63483;47.384;8.860;2023-06-14T01:45:57;93986.06;;;13.13;31.67
74921;BME280;63483;47.384;8.860;2023-06-14T01:48:23;93984.81;;;13.16;31.56
74921;BME280;63483;47.384;8.860;2023-06-14T01:50:49;93986.06;;;13.13;31.45
74921;BME280;63483;47.384;8.860;2023-06-14T01:53:15;93993.34;;;13.11;31.56
74921;BME280;63483;47.384;8.860;2023-06-14T01:55:41;93987.72;;;13.08;31.53
74921;BME280;63483;47.384;8.860;2023-06-14T01:58:09;93988.94;;;13.05;31.63
74921;BME280;63483;47.384;8.860;2023-06-14T02:00:34;93980.66;;;13.02;31.78
74921;BME280;63483;47.384;8.860;2023-06-14T02:03:00;93983.69;;;12.98;31.96
74921;BME280;63483;47.384;8.860;2023-06-14T02:05:25;93987.78;;;12.94;31.94
74921;BME280;63483;47.384;8.860;2023-06-14T02:07:52;93991.03;;;12.90;31.80
74921;BME280;63483;47.384;8.860;2023-06-14T02:10:19;93989.41;;;12.89;31.93
74921;BME280;63483;47.384;8.860;2023-06-14T02:12:44;93984.97;;;12.89;31.78
74921;BME280;63483;47.384;8.860;2023-06-14T02:15:10;93983.56;;;12.87;31.91
74921;BME280;63483;47.384;8.860;2023-06-14T02:17:42;93985.00;;;12.82;32.09
74921;BME280;63483;47.384;8.860;2023-06-14T02:20:08;93983.00;;;12.78;32.21
74921;BME280;63483;47.384;8.860;2023-06-14T02:22:34;93988.28;;;12.78;32.03
74921;BME280;63483;47.384;8.860;2023-06-14T02:24:59;93989.88;;;12.79;32.10
74921;BME280;63483;47.384;8.860;2023-06-14T02:27:25;93982.16;;;12.77;32.21
74921;BME280;63483;47.384;8.860;2023-06-14T02:29:50;93990.91;;;12.78;32.19
74921;BME280;63483;47.384;8.860;2023-06-14T02:32:16;93995.28;;;12.77;32.35
74921;BME280;63483;47.384;8.860;2023-06-14T02:34:41;94001.59;;;12.76;32.20
74921;BME280;63483;47.384;8.860;2023-06-14T02:37:06;93997.75;;;12.72;32.29
74921;BME280;63483;47.384;8.860;2023-06-14T02:39:32;93998.59;;;12.66;32.26
74921;BME280;63483;47.384;8.860;2023-06-14T02:41:57;93994.16;;;12.60;32.08
74921;BME280;63483;47.384;8.860;2023-06-14T02:44:26;94001.25;;;12.59;32.56
74921;BME280;63483;47.384;8.860;2023-06-14T02:46:53;93989.75;;;12.54;32.55
74921;BME280;63483;47.384;8.860;2023-06-14T02:49:19;93992.78;;;12.51;32.51
74921;BME280;63483;47.384;8.860;2023-06-14T02:51:44;93995.81;;;12.47;32.53
74921;BME280;63483;47.384;8.860;2023-06-14T02:54:10;93998.44;;;12.47;32.59
74921;BME280;63483;47.384;8.860;2023-06-14T02:56:36;93996.25;;;12.44;32.46
74921;BME280;63483;47.384;8.860;2023-06-14T02:59:01;94004.94;;;12.38;32.59
74921;BME280;63483;47.384;8.860;2023-06-14T03:01:27;94005.38;;;12.35;32.59
74921;BME280;63483;47.384;8.860;2023-06-14T03:03:59;94009.00;;;12.34;32.58
74921;BME280;63483;47.384;8.860;2023-06-14T03:06:24;94004.16;;;12.31;32.54
74921;BME280;63483;47.384;8.860;2023-06-14T03:08:50;94015.06;;;12.28;32.30
74921;BME280;63483;47.384;8.860;2023-06-14T03:11:15;94004.56;;;12.28;32.55
74921;BME280;63483;47.384;8.860;2023-06-14T03:13:42;94011.84;;;12.26;32.56
74921;BME280;63483;47.384;8.860;2023-06-14T03:16:08;94015.50;;;12.25;32.81
74921;BME280;63483;47.384;8.860;2023-06-14T03:18:34;94014.28;;;12.21;32.69
74921;BME280;63483;47.384;8.860;2023-06-14T03:21:03;94018.94;;;12.19;32.84
74921;BME280;63483;47.384;8.860;2023-06-14T03:23:28;94023.97;;;12.13;32.83
74921;BME280;63483;47.384;8.860;2023-06-14T03:25:54;94021.56;;;12.12;32.79
74921;BME280;63483;47.384;8.860;2023-06-14T03:28:21;94023.19;;;12.06;33.02
74921;BME280;63483;47.384;8.860;2023-06-14T03:30:46;94026.84;;;12.05;33.05
74921;BME280;63483;47.384;8.860;2023-06-14T03:33:11;94025.63;;;12.01;33.08
74921;BME280;63483;47.384;8.860;2023-06-14T03:35:37;94033.69;;;12.00;33.31
74921;BME280;63483;47.384;8.860;2023-06-14T03:38:02;94026.84;;;11.99;33.25
74921;BME280;63483;47.384;8.860;2023-06-14T03:40:28;94031.69;;;11.95;33.06
74921;BME280;63483;47.384;8.860;2023-06-14T03:42:54;94028.44;;;11.93;33.16
74921;BME280;63483;47.384;8.860;2023-06-14T03:45:20;94034.69;;;11.92;33.22
74921;BME280;63483;47.384;8.860;2023-06-14T03:47:46;94038.94;;;11.93;33.05
74921;BME280;63483;47.384;8.860;2023-06-14T03:50:11;94038.94;;;11.93;33.13
74921;BME280;63483;47.384;8.860;2023-06-14T03:52:37;94035.72;;;11.91;33.00
74921;BME280;63483;47.384;8.860;2023-06-14T03:55:03;94040.16;;;11.90;33.16
74921;BME280;63483;47.384;8.860;2023-06-14T03:57:29;94045.41;;;11.90;33.19
74921;BME280;63483;47.384;8.860;2023-06-14T03:59:54;94042.78;;;11.90;33.19
74921;BME280;63483;47.384;8.860;2023-06-14T04:02:20;94045.59;;;11.89;33.08
74921;BME280;63483;47.384;8.860;2023-06-14T04:04:45;94049.00;;;11.83;33.47
74921;BME280;63483;47.384;8.860;2023-06-14T04:07:11;94048.63;;;11.79;33.68
74921;BME280;63483;47.384;8.860;2023-06-14T04:09:37;94053.66;;;11.81;33.65
74921;BME280;63483;47.384;8.860;2023-06-14T04:12:03;94058.69;;;11.75;33.35
74921;BME280;63483;47.384;8.860;2023-06-14T04:14:29;94056.47;;;11.72;33.48
74921;BME280;63483;47.384;8.860;2023-06-14T04:16:55;94063.53;;;11.65;33.72
74921;BME280;63483;47.384;8.860;2023-06-14T04:19:21;94063.13;;;11.61;33.97
74921;BME280;63483;47.384;8.860;2023-06-14T04:21:46;94071.19;;;11.60;33.83
74921;BME280;63483;47.384;8.860;2023-06-14T04:24:12;94061.72;;;11.59;33.99
74921;BME280;63483;47.384;8.860;2023-06-14T04:26:39;94069.38;;;11.60;33.86
74921;BME280;63483;47.384;8.860;2023-06-14T04:29:04;94069.16;;;11.62;34.15
74921;BME280;63483;47.384;8.860;2023-06-14T04:31:30;94080.50;;;11.63;34.26
74921;BME280;63483;47.384;8.860;2023-06-14T04:33:59;94076.44;;;11.67;34.17
74921;BME280;63483;47.384;8.860;2023-06-14T04:36:25;94080.69;;;11.68;34.20
74921;BME280;63483;47.384;8.860;2023-06-14T04:38:53;94085.13;;;11.67;34.06
74921;BME280;63483;47.384;8.860;2023-06-14T04:41:20;94074.63;;;11.67;33.97
74921;BME280;63483;47.384;8.860;2023-06-14T04:43:48;94084.72;;;11.70;34.17
74921;BME280;63483;47.384;8.860;2023-06-14T04:46:14;94083.31;;;11.68;34.14
74921;BME280;63483;47.384;8.860;2023-06-14T04:48:40;94087.56;;;11.69;34.46
74921;BME280;63483;47.384;8.860;2023-06-14T04:51:08;94088.16;;;11.71;34.38
74921;BME280;63483;47.384;8.860;2023-06-14T04:53:33;94098.44;;;11.72;34.25
74921;BME280;63483;47.384;8.860;2023-06-14T04:55:59;94089.38;;;11.75;34.26
74921;BME280;63483;47.384;8.860;2023-06-14T04:58:26;94088.56;;;11.74;34.19
74921;BME280;63483;47.384;8.860;2023-06-14T05:00:52;94087.34;;;11.77;33.94
74921;BME280;63483;47.384;8.860;2023-06-14T05:03:18;94092.00;;;11.75;34.07
74921;BME280;63483;47.384;8.860;2023-06-14T05:05:46;94090.16;;;11.75;34.68
74921;BME280;63483;47.384;8.860;2023-06-14T05:08:11;94099.06;;;11.74;34.30
74921;BME280;63483;47.384;8.860;2023-06-14T05:10:36;94095.81;;;11.72;34.77
74921;BME280;63483;47.384;8.860;2023-06-14T05:13:02;94099.47;;;11.71;34.83
74921;BME280;63483;47.384;8.860;2023-06-14T05:15:27;94097.44;;;11.73;34.50
74921;BME280;63483;47.384;8.860;2023-06-14T05:17:54;94100.66;;;11.75;33.94
74921;BME280;63483;47.384;8.860;2023-06-14T05:20:24;94104.91;;;11.76;34.09
74921;BME280;63483;47.384;8.860;2023-06-14T05:22:53;94098.47;;;11.79;34.07
74921;BME280;63483;47.384;8.860;2023-06-14T05:25:22;94101.47;;;11.83;34.14
74921;BME280;63483;47.384;8.860;2023-06-14T05:27:48;94103.53;;;11.87;34.33
74921;BME280;63483;47.384;8.860;2023-06-14T05:30:15;94099.09;;;11.88;34.26
74921;BME280;63483;47.384;8.860;2023-06-14T05:32:41;94102.31;;;11.90;34.30
74921;BME280;63483;47.384;8.860;2023-06-14T05:35:07;94100.31;;;11.92;34.26
74921;BME280;63483;47.384;8.860;2023-06-14T05:37:32;94110.41;;;11.95;34.32
74921;BME280;63483;47.384;8.860;2023-06-14T05:39:58;94112.41;;;11.93;34.38
74921;BME280;63483;47.384;8.860;2023-06-14T05:42:23;94110.41;;;11.95;34.43
74921;BME280;63483;47.384;8.860;2023-06-14T05:44:48;94118.88;;;11.97;34.30
74921;BME280;63483;47.384;8.860;2023-06-14T05:47:14;94114.84;;;12.01;34.52
74921;BME280;63483;47.384;8.860;2023-06-14T05:49:39;94115.88;;;12.07;34.41
74921;BME280;63483;47.384;8.860;2023-06-14T05:52:05;94121.91;;;12.07;34.51
74921;BME280;63483;47.384;8.860;2023-06-14T05:54:31;94120.72;;;12.10;34.46
74921;BME280;63483;47.384;8.860;2023-06-14T05:56:56;94118.47;;;12.13;34.53
74921;BME280;63483;47.384;8.860;2023-06-14T05:59:26;94117.28;;;12.16;34.34
74921;BME280;63483;47.384;8.860;2023-06-14T06:01:52;94116.66;;;12.21;34.69
74921;BME280;63483;47.384;8.860;2023-06-14T06:04:17;94112.00;;;12.23;34.34
74921;BME280;63483;47.384;8.860;2023-06-14T06:06:42;94119.28;;;12.27;34.24
74921;BME280;63483;47.384;8.860;2023-06-14T06:09:07;94112.81;;;12.30;34.03
74921;BME280;63483;47.384;8.860;2023-06-14T06:11:33;94119.28;;;12.34;34.26
74921;BME280;63483;47.384;8.860;2023-06-14T06:13:58;94124.53;;;12.41;34.38
74921;BME280;63483;47.384;8.860;2023-06-14T06:16:24;94119.69;;;12.44;34.36
74921;BME280;63483;47.384;8.860;2023-06-14T06:18:49;94124.09;;;12.51;34.24
74921;BME280;63483;47.384;8.860;2023-06-14T06:21:15;94128.75;;;12.62;34.42
74921;BME280;63483;47.384;8.860;2023-06-14T06:23:40;94126.88;;;12.76;34.50
74921;BME280;63483;47.384;8.860;2023-06-14T06:26:05;94125.09;;;12.90;34.50
74921;BME280;63483;47.384;8.860;2023-06-14T06:28:31;94123.78;;;13.06;34.02
74921;BME280;63483;47.384;8.860;2023-06-14T06:30:56;94132.03;;;13.23;33.66
74921;BME280;63483;47.384;8.860;2023-06-14T06:33:21;94132.13;;;13.41;33.26
74921;BME280;63483;47.384;8.860;2023-06-14T06:35:47;94131.06;;;13.56;33.19
74921;BME280;63483;47.384;8.860;2023-06-14T06:38:12;94133.44;;;13.70;33.15
74921;BME280;63483;47.384;8.860;2023-06-14T06:40:37;94137.38;;;13.86;33.15
74921;BME280;63483;47.384;8.860;2023-06-14T06:43:03;94132.41;;;14.03;32.66
74921;BME280;63483;47.384;8.860;2023-06-14T06:45:28;94132.38;;;14.10;33.23
74921;BME280;63483;47.384;8.860;2023-06-14T06:47:54;94129.72;;;14.10;35.08
74921;BME280;63483;47.384;8.860;2023-06-14T06:50:20;94129.03;;;14.21;33.14
74921;BME280;63483;47.384;8.860;2023-06-14T06:52:48;94126.53;;;14.33;34.05
74921;BME280;63483;47.384;8.860;2023-06-14T06:55:13;94128.66;;;14.43;34.14
74921;BME280;63483;47.384;8.860;2023-06-14T06:57:39;94133.81;;;14.56;33.11
74921;BME280;63483;47.384;8.860;2023-06-14T07:00:06;94134.53;;;14.45;31.84
74921;BME280;63483;47.384;8.860;2023-06-14T07:02:34;94135.47;;;14.26;32.23
74921;BME280;63483;47.384;8.860;2023-06-14T07:05:00;94140.97;;;14.24;32.21
74921;BME280;63483;47.384;8.860;2023-06-14T07:07:25;94147.81;;;14.57;31.48
74921;BME280;63483;47.384;8.860;2023-06-14T07:09:50;94134.59;;;14.32;30.50
74921;BME280;63483;47.384;8.860;2023-06-14T07:12:16;94148.00;;;14.55;30.55
74921;BME280;63483;47.384;8.860;2023-06-14T07:14:41;94144.56;;;14.99;29.58
74921;BME280;63483;47.384;8.860;2023-06-14T07:17:06;94151.72;;;15.10;27.72
74921;BME280;63483;47.384;8.860;2023-06-14T07:19:32;94146.75;;;15.20;28.23
74921;BME280;63483;47.384;8.860;2023-06-14T07:21:58;94148.16;;;15.41;27.84
74921;BME280;63483;47.384;8.860;2023-06-14T07:24:23;94151.44;;;15.37;24.93
74921;BME280;63483;47.384;8.860;2023-06-14T07:26:49;94160.41;;;15.36;25.13
74921;BME280;63483;47.384;8.860;2023-06-14T07:29:15;94158.41;;;15.50;25.25
74921;BME280;63483;47.384;8.860;2023-06-14T07:31:41;94159.66;;;15.47;24.62
74921;BME280;63483;47.384;8.860;2023-06-14T07:34:07;94160.34;;;15.73;24.93
74921;BME280;63483;47.384;8.860;2023-06-14T07:36:32;94162.72;;;15.44;24.70
74921;BME280;63483;47.384;8.860;2023-06-14T07:38:57;94178.75;;;15.91;23.18
74921;BME280;63483;47.384;8.860;2023-06-14T07:41:23;94169.03;;;15.92;23.51
74921;BME280;63483;47.384;8.860;2023-06-14T07:43:48;94170.53;;;16.00;22.70
74921;BME280;63483;47.384;8.860;2023-06-14T07:46:14;94166.50;;;15.97;22.35
74921;BME280;63483;47.384;8.860;2023-06-14T07:48:40;94165.25;;;16.00;23.33
74921;BME280;63483;47.384;8.860;2023-06-14T07:51:05;94161.47;;;16.07;22.77
74921;BME280;63483;47.384;8.860;2023-06-14T07:53:31;94169.72;;;16.29;21.92
74921;BME280;63483;47.384;8.860;2023-06-14T07:55:56;94163.06;;;16.39;22.78
74921;BME280;63483;47.384;8.860;2023-06-14T07:58:22;94158.16;;;16.66;22.84
74921;BME280;63483;47.384;8.860;2023-06-14T08:00:47;94159.44;;;16.87;22.77
74921;BME280;63483;47.384;8.860;2023-06-14T08:03:12;94158.72;;;17.03;23.02
74921;BME280;63483;47.384;8.860;2023-06-14T08:05:38;94166.09;;;17.01;24.36
74921;BME280;63483;47.384;8.860;2023-06-14T08:08:03;94159.38;;;17.23;23.12
74921;BME280;63483;47.384;8.860;2023-06-14T08:10:29;94157.41;;;17.30;22.86
74921;BME280;63483;47.384;8.860;2023-06-14T08:12:54;94164.09;;;17.32;24.22
74921;BME280;63483;47.384;8.860;2023-06-14T08:15:19;94161.25;;;17.51;22.18
74921;BME280;63483;47.384;8.860;2023-06-14T08:17:45;94163.91;;;17.10;21.25
74921;BME280;63483;47.384;8.860;2023-06-14T08:20:11;94163.03;;;17.33;21.90
74921;BME280;63483;47.384;8.860;2023-06-14T08:22:37;94168.53;;;17.44;22.29
74921;BME280;63483;47.384;8.860;2023-06-14T08:25:04;94165.41;;;17.59;22.40
74921;BME280;63483;47.384;8.860;2023-06-14T08:27:30;94163.59;;;17.47;22.23
74921;BME280;63483;47.384;8.860;2023-06-14T08:29:56;94170.00;;;17.63;21.56
74921;BME280;63483;47.384;8.860;2023-06-14T08:32:22;94176.91;;;17.64;21.55
74921;BME280;63483;47.384;8.860;2023-06-14T08:34:47;94170.91;;;17.69;22.61
74921;BME280;63483;47.384;8.860;2023-06-14T08:37:13;94174.59;;;17.97;21.24
74921;BME280;63483;47.384;8.860;2023-06-14T08:39:38;94171.81;;;18.03;21.52
74921;BME280;63483;47.384;8.860;2023-06-14T08:42:05;94172.47;;;18.28;21.22
74921;BME280;63483;47.384;8.860;2023-06-14T08:44:33;94178.31;;;18.13;22.37
74921;BME280;63483;47.384;8.860;2023-06-14T08:47:02;94170.63;;;18.11;22.50
74921;BME280;63483;47.384;8.860;2023-06-14T08:49:29;94169.34;;;17.85;23.50
74921;BME280;63483;47.384;8.860;2023-06-14T08:52:00;94178.22;;;18.07;22.37
74921;BME280;63483;47.384;8.860;2023-06-14T08:54:27;94182.47;;;18.08;22.45
74921;BME280;63483;47.384;8.860;2023-06-14T08:56:56;94194.16;;;18.24;22.02
74921;BME280;63483;47.384;8.860;2023-06-14T08:59:25;94183.03;;;18.11;22.66
74921;BME280;63483;47.384;8.860;2023-06-14T09:01:51;94185.25;;;18.02;22.84
74921;BME280;63483;47.384;8.860;2023-06-14T09:04:18;94182.53;;;17.97;22.81
74921;BME280;63483;47.384;8.860;2023-06-14T09:06:45;94174.16;;;17.88;22.71
74921;BME280;63483;47.384;8.860;2023-06-14T09:09:11;94183.19;;;17.75;22.97
74921;BME280;63483;47.384;8.860;2023-06-14T09:11:37;94180.31;;;17.77;22.62
74921;BME280;63483;47.384;8.860;2023-06-14T09:14:03;94181.75;;;17.96;23.14
74921;BME280;63483;47.384;8.860;2023-06-14T09:16:28;94184.75;;;17.88;22.67
74921;BME280;63483;47.384;8.860;2023-06-14T09:18:54;94175.97;;;18.16;21.93
74921;BME280;63483;47.384;8.860;2023-06-14T09:21:19;94176.88;;;18.05;22.03
74921;BME280;63483;47.384;8.860;2023-06-14T09:23:47;94170.06;;;18.26;22.43
74921;BME280;63483;47.384;8.860;2023-06-14T09:26:15;94167.31;;;18.21;21.91
74921;BME280;63483;47.384;8.860;2023-06-14T09:28:47;94185.91;;;17.92;22.44
74921;BME280;63483;47.384;8.860;2023-06-14T09:31:17;94187.41;;;18.17;21.76
74921;BME280;63483;47.384;8.860;2023-06-14T09:33:44;94187.84;;;18.14;22.10
74921;BME280;63483;47.384;8.860;2023-06-14T09:38:51;94177.78;;;18.28;22.72
74921;BME280;63483;47.384;8.860;2023-06-14T09:41:17;94186.34;;;18.47;21.66
74921;BME280;63483;47.384;8.860;2023-06-14T09:43:43;94186.41;;;18.52;22.39
74921;BME280;63483;47.384;8.860;2023-06-14T09:46:10;94198.75;;;18.29;21.88
74921;BME280;63483;47.384;8.860;2023-06-14T09:48:36;94188.50;;;18.50;22.24
74921;BME280;63483;47.384;8.860;2023-06-14T09:51:01;94199.19;;;18.55;21.93
74921;BME280;63483;47.384;8.860;2023-06-14T09:53:29;94194.47;;;18.57;21.83
74921;BME280;63483;47.384;8.860;2023-06-14T09:55:57;94198.38;;;18.71;23.01
74921;BME280;63483;47.384;8.860;2023-06-14T09:58:26;94196.44;;;18.84;21.62
74921;BME280;63483;47.384;8.860;2023-06-14T10:00:54;94206.75;;;18.63;22.39
74921;BME280;63483;47.384;8.860;2023-06-14T10:03:29;94200.97;;;18.66;21.46
74921;BME280;63483;47.384;8.860;2023-06-14T10:05:55;94210.13;;;18.58;21.93
74921;BME280;63483;47.384;8.860;2023-06-14T10:08:27;94192.50;;;19.03;21.65
74921;BME280;63483;47.384;8.860;2023-06-14T10:10:57;94195.16;;;19.03;21.66
74921;BME280;63483;47.384;8.860;2023-06-14T10:13:23;94192.34;;;19.32;22.52
74921;BME280;63483;47.384;8.860;2023-06-14T10:18:42;94185.09;;;19.44;20.46
74921;BME280;63483;47.384;8.860;2023-06-14T10:21:21;94195.59;;;19.78;20.76
74921;BME280;63483;47.384;8.860;2023-06-14T10:23:51;94193.59;;;19.91;20.27
74921;BME280;63483;47.384;8.860;2023-06-14T10:26:21;94203.22;;;19.53;20.31
74921;BME280;63483;47.384;8.860;2023-06-14T10:28:58;94194.50;;;19.74;20.12
74921;BME280;63483;47.384;8.860;2023-06-14T10:31:40;94189.28;;;19.85;19.60
74921;BME280;63483;47.384;8.860;2023-06-14T10:34:06;94194.34;;;19.64;20.09
74921;BME280;63483;47.384;8.860;2023-06-14T10:36:31;94195.00;;;19.71;20.00
74921;BME280;63483;47.384;8.860;2023-06-14T10:39:08;94190.41;;;19.89;19.28
74921;BME280;63483;47.384;8.860;2023-06-14T10:41:39;94191.31;;;19.99;19.58
74921;BME280;63483;47.384;8.860;2023-06-14T10:46:40;94184.69;;;20.02;20.20
74921;BME280;63483;47.384;8.860;2023-06-14T10:49:05;94174.47;;;19.89;19.69
74921;BME280;63483;47.384;8.860;2023-06-14T10:51:38;94188.09;;;20.25;19.34
74921;BME280;63483;47.384;8.860;2023-06-14T10:54:12;94189.84;;;20.36;18.89
74921;BME280;63483;47.384;8.860;2023-06-14T10:56:54;94177.91;;;20.44;19.08
74921;BME280;63483;47.384;8.860;2023-06-14T10:59:20;94186.28;;;20.58;18.74
74921;BME280;63483;47.384;8.860;2023-06-14T11:04:49;94171.31;;;20.51;18.56
74921;BME280;63483;47.384;8.860;2023-06-14T11:10:35;94172.34;;;20.45;19.85
74921;BME280;63483;47.384;8.860;2023-06-14T11:13:02;94182.19;;;20.82;18.97
74921;BME280;63483;47.384;8.860;2023-06-14T11:15:32;94182.72;;;20.79;18.33
74921;BME280;63483;47.384;8.860;2023-06-14T11:18:00;94175.44;;;20.64;18.42
74921;BME280;63483;47.384;8.860;2023-06-14T11:20:30;94170.53;;;20.51;19.41
74921;BME280;63483;47.384;8.860;2023-06-14T11:22:56;94168.81;;;20.67;19.85
74921;BME280;63483;47.384;8.860;2023-06-14T11:25:21;94187.97;;;20.69;18.40
74921;BME280;63483;47.384;8.860;2023-06-14T11:27:49;94174.91;;;21.05;20.24
74921;BME280;63483;47.384;8.860;2023-06-14T11:30:15;94168.03;;;21.09;18.92
74921;BME280;63483;47.384;8.860;2023-06-14T11:32:40;94177.69;;;21.20;18.94
74921;BME280;63483;47.384;8.860;2023-06-14T11:35:07;94162.59;;;20.94;18.71
74921;BME280;63483;47.384;8.860;2023-06-14T11:37:33;94176.53;;;21.11;17.36
74921;BME280;63483;47.384;8.860;2023-06-14T11:39:59;94170.53;;;20.89;18.10
74921;BME280;63483;47.384;8.860;2023-06-14T11:42:28;94171.78;;;21.13;19.03
74921;BME280;63483;47.384;8.860;2023-06-14T11:44:54;94162.59;;;20.94;18.52
74921;BME280;63483;47.384;8.860;2023-06-14T11:47:20;94159.34;;;20.86;18.53
74921;BME280;63483;47.384;8.860;2023-06-14T11:49:46;94163.31;;;20.84;18.30
74921;BME280;63483;47.384;8.860;2023-06-14T11:52:12;94159.06;;;20.50;17.68
74921;BME280;63483;47.384;8.860;2023-06-14T11:54:37;94148.72;;;20.92;18.77
74921;BME280;63483;47.384;8.860;2023-06-14T11:57:04;94152.16;;;20.49;19.37
74921;BME280;63483;47.384;8.860;2023-06-14T11:59:30;94146.38;;;20.58;17.94
74921;BME280;63483;47.384;8.860;2023-06-14T12:01:56;94143.72;;;20.58;18.02
74921;BME280;63483;47.384;8.860;2023-06-14T12:04:29;94151.28;;;20.76;17.85
74921;BME280;63483;47.384;8.860;2023-06-14T12:06:54;94151.22;;;21.03;18.40
74921;BME280;63483;47.384;8.860;2023-06-14T12:09:21;94142.84;;;21.32;18.67
74921;BME280;63483;47.384;8.860;2023-06-14T12:11:49;94158.16;;;21.63;18.53
74921;BME280;63483;47.384;8.860;2023-06-14T12:14:14;94148.97;;;21.38;17.89
74921;BME280;63483;47.384;8.860;2023-06-14T12:16:40;94160.13;;;21.30;17.26
74921;BME280;63483;47.384;8.860;2023-06-14T12:19:12;94147.44;;;21.52;18.40
74921;BME280;63483;47.384;8.860;2023-06-14T12:21:39;94149.00;;;21.43;19.88
74921;BME280;63483;47.384;8.860;2023-06-14T12:24:05;94153.13;;;21.66;17.42
74921;BME280;63483;47.384;8.860;2023-06-14T12:26:32;94147.84;;;21.87;17.47
74921;BME280;63483;47.384;8.860;2023-06-14T12:28:58;94150.75;;;21.85;17.17
74921;BME280;63483;47.384;8.860;2023-06-14T12:31:24;94151.53;;;21.81;16.03
74921;BME280;63483;47.384;8.860;2023-06-14T12:33:49;94144.69;;;22.00;16.63
74921;BME280;63483;47.384;8.860;2023-06-14T12:36:15;94150.53;;;22.02;16.52
74921;BME280;63483;47.384;8.860;2023-06-14T12:38:42;94145.47;;;22.06;16.75
74921;BME280;63483;47.384;8.860;2023-06-14T12:41:07;94154.63;;;21.57;15.37
74921;BME280;63483;47.384;8.860;2023-06-14T12:43:33;94145.94;;;21.82;16.14
74921;BME280;63483;47.384;8.860;2023-06-14T12:45:59;94151.25;;;21.67;16.22
74921;BME280;63483;47.384;8.860;2023-06-14T12:48:25;94152.88;;;21.73;16.13
74921;BME280;63483;47.384;8.860;2023-06-14T12:50:52;94145.97;;;21.92;16.13
74921;BME280;63483;47.384;8.860;2023-06-14T12:53:17;94165.44;;;21.83;16.36
74921;BME280;63483;47.384;8.860;2023-06-14T12:55:43;94177.84;;;21.56;16.25
74921;BME280;63483;47.384;8.860;2023-06-14T12:58:08;94165.16;;;21.84;16.32
74921;BME280;63483;47.384;8.860;2023-06-14T13:00:35;94170.09;;;21.55;16.25
74921;BME280;63483;47.384;8.860;2023-06-14T13:03:00;94160.63;;;21.85;17.00
74921;BME280;63483;47.384;8.860;2023-06-14T13:05:25;94153.53;;;22.21;16.92
74921;BME280;63483;47.384;8.860;2023-06-14T13:07:50;94138.56;;;22.46;17.96
74921;BME280;63483;47.384;8.860;2023-06-14T13:10:17;94155.94;;;22.23;17.15
74921;BME280;63483;47.384;8.860;2023-06-14T13:12:43;94158.59;;;22.38;17.84